Time;durP1;ratioP1;P1;durP2;ratioP2;P2;SDS_P1;SDS_P2;PMS_P1;PMS_P2;Temp;Humidity;BMP_temperature;BMP_pressure;BME280_temperature;BME280_humidity;BME280_pressure;Samples;Min_cycle;Max_cycle;Signal;HPM_P1;HPM_P2
2022/08/15 00:02:08;;;;;;;34.25;32.17;;;;;;;22.77;73.25;99982.91;4999788;28;102316;-56
2022/08/15 00:04:35;;;;;;;34.58;32.50;;;;;;;22.78;73.25;99978.94;4997464;28;104033;-56
2022/08/15 00:07:04;;;;;;;35.78;33.72;;;;;;;22.78;73.13;99978.94;4998058;28;102261;-56
2022/08/15 00:09:31;;;;;;;34.92;32.90;;;;;;;22.79;73.22;99974.19;4998108;28;101949;-56
2022/08/15 00:11:59;;;;;;;33.00;30.95;;;;;;;22.78;73.16;99978.16;5000126;28;102329;-56
2022/08/15 00:14:30;;;;;;;36.00;33.90;;;;;;;22.78;73.17;99973.41;4998018;28;103912;-57
2022/08/15 00:16:57;;;;;;;35.60;33.47;;;;;;;22.78;73.30;99978.16;4999371;28;102422;-56
2022/08/15 00:19:28;;;;;;;36.17;33.90;;;;;;;22.77;73.39;99977.34;4998583;28;101964;-57
2022/08/15 00:21:59;;;;;;;37.08;34.90;;;;;;;22.78;73.23;99973.41;4998881;28;102481;-54
2022/08/15 00:24:31;;;;;;;35.30;33.13;;;;;;;22.79;73.17;99979.75;4979342;28;103992;-56
2022/08/15 00:27:00;;;;;;;35.83;33.83;;;;;;;22.78;73.21;99978.16;4998587;28;102313;-56
2022/08/15 00:29:30;;;;;;;38.30;35.90;;;;;;;22.78;73.28;99976.19;4998091;28;102006;-56
2022/08/15 00:31:57;;;;;;;35.97;33.90;;;;;;;22.77;73.13;99980.13;4998349;28;102389;-56
2022/08/15 00:34:24;;;;;;;32.05;30.15;;;;;;;22.79;73.44;99979.75;4996645;28;103990;-56
2022/08/15 00:36:50;;;;;;;37.75;35.40;;;;;;;22.78;73.25;99967.84;4998616;28;102306;-57
2022/08/15 00:39:19;;;;;;;38.38;35.92;;;;;;;22.78;73.08;99978.16;4998063;28;102172;-56
2022/08/15 00:41:49;;;;;;;34.17;32.17;;;;;;;22.77;73.33;99977.34;4996928;28;102346;-56
2022/08/15 00:44:18;;;;;;;34.15;32.08;;;;;;;22.77;73.03;99963.50;4988062;28;103881;-56
2022/08/15 00:46:49;;;;;;;33.55;31.60;;;;;;;22.77;73.21;99952.41;4998769;28;102027;-56
2022/08/15 00:49:16;;;;;;;33.22;31.27;;;;;;;22.78;73.25;99967.06;4997789;28;101940;-55
2022/08/15 00:51:46;;;;;;;33.95;31.80;;;;;;;22.77;73.07;99954.38;4999279;28;102169;-56
2022/08/15 00:54:19;;;;;;;39.90;37.63;;;;;;;22.77;73.25;99949.63;4996809;28;103933;-56
2022/08/15 00:56:51;;;;;;;32.55;30.52;;;;;;;22.76;73.18;99948.03;4998524;28;101912;-56
2022/08/15 00:59:21;;;;;;;32.03;30.05;;;;;;;22.77;73.10;99949.63;4998150;28;102140;-56
2022/08/15 01:01:48;;;;;;;35.22;33.17;;;;;;;22.77;73.37;99946.84;4999137;28;102072;-56
2022/08/15 01:04:16;;;;;;;37.35;35.13;;;;;;;22.77;73.20;99954.38;4997680;28;104204;-56
2022/08/15 01:06:45;;;;;;;32.47;30.50;;;;;;;22.77;73.09;99948.81;4998858;28;102150;-57
2022/08/15 01:09:13;;;;;;;33.22;31.23;;;;;;;22.77;73.29;99943.28;4981410;28;102193;-56
2022/08/15 01:11:45;;;;;;;35.13;32.80;;;;;;;22.77;73.29;99948.81;4989751;28;102264;-56
2022/08/15 01:14:13;;;;;;;35.15;33.15;;;;;;;22.78;73.15;99962.31;4985398;28;104347;-57
2022/08/15 01:16:40;;;;;;;31.02;29.13;;;;;;;22.77;73.32;99949.63;4992769;28;102477;-56
2022/08/15 01:19:13;;;;;;;32.20;30.27;;;;;;;22.77;73.19;99949.63;4996841;28;102141;-56
2022/08/15 01:22:00;;;;;;;30.15;28.45;;;;;;;22.78;73.03;99942.09;4998738;28;102445;-56
2022/08/15 01:24:43;;;;;;;30.88;29.05;;;;;;;22.78;73.29;99942.09;4995858;28;103832;-56
2022/08/15 01:27:10;;;;;;;28.85;27.15;;;;;;;22.76;73.13;99942.47;4995234;28;102323;-56
2022/08/15 01:29:37;;;;;;;30.95;29.02;;;;;;;22.77;73.29;99932.19;4996775;28;101983;-55
2022/08/15 01:32:04;;;;;;;35.03;32.88;;;;;;;22.76;73.24;99927.81;4982860;28;102203;-56
2022/08/15 01:34:30;;;;;;;28.98;27.27;;;;;;;22.76;73.15;99925.03;4996708;28;103997;-55
2022/08/15 01:36:57;;;;;;;30.92;28.95;;;;;;;22.76;73.37;99931.38;4997970;28;104981;-56
2022/08/15 01:39:30;;;;;;;30.65;28.67;;;;;;;22.76;73.15;99931.38;4995930;28;102511;-56
2022/08/15 01:42:05;;;;;;;32.38;30.50;;;;;;;22.77;73.22;99935.75;4982408;28;105425;-55
2022/08/15 01:44:38;;;;;;;29.35;27.65;;;;;;;22.77;73.39;99932.19;4996185;28;104010;-56
2022/08/15 01:47:17;;;;;;;32.80;30.77;;;;;;;22.76;73.25;99925.84;4998344;28;102112;-57
2022/08/15 01:49:51;;;;;;;30.88;29.02;;;;;;;22.75;73.22;99929.75;4996974;28;102018;-56
2022/08/15 01:52:20;;;;;;;29.88;27.92;;;;;;;22.75;73.20;99927.00;4998258;28;102365;-56
2022/08/15 01:54:50;;;;;;;30.70;28.90;;;;;;;22.76;73.10;99942.47;4995021;28;103943;-56
2022/08/15 01:57:19;;;;;;;32.83;30.90;;;;;;;22.76;73.31;99939.72;4997235;28;102446;-56
2022/08/15 01:59:54;;;;;;;29.45;27.77;;;;;;;22.76;73.26;99945.25;4995948;28;103281;-57
2022/08/15 02:02:21;;;;;;;33.90;31.80;;;;;;;22.76;73.19;99942.47;4998480;28;102429;-56
2022/08/15 02:04:47;;;;;;;32.33;30.40;;;;;;;22.75;73.03;99946.41;4996432;28;103700;-56
2022/08/15 02:07:17;;;;;;;28.48;26.63;;;;;;;22.76;73.14;99952.78;4996571;28;102045;-56
2022/08/15 02:09:44;;;;;;;30.45;28.50;;;;;;;22.75;73.20;99949.19;4996288;28;102447;-56
2022/08/15 02:12:12;;;;;;;29.50;27.73;;;;;;;22.75;73.35;99957.50;4998639;28;102153;-56
2022/08/15 02:14:41;;;;;;;31.52;29.63;;;;;;;22.75;73.25;99957.50;4996911;28;103844;-55
2022/08/15 02:17:08;;;;;;;29.13;27.33;;;;;;;22.75;73.09;99951.16;4996627;28;102017;-56
2022/08/15 02:19:35;;;;;;;32.38;30.40;;;;;;;22.75;73.10;99951.94;4984425;28;101869;-56
2022/08/15 02:22:04;;;;;;;31.77;29.88;;;;;;;22.76;73.22;99941.69;4997578;28;102960;-56
2022/08/15 02:24:31;;;;;;;31.00;29.10;;;;;;;22.76;73.56;99947.22;4996178;28;103935;-57
2022/08/15 02:26:57;;;;;;;30.55;28.70;;;;;;;22.75;73.19;99951.94;4996984;28;102322;-56
2022/08/15 02:29:26;;;;;;;34.08;32.13;;;;;;;22.74;73.08;99953.13;4996123;28;102106;-56
2022/08/15 02:31:59;;;;;;;31.13;29.33;;;;;;;22.74;73.11;99950.34;4998172;28;102180;-56
2022/08/15 02:34:26;;;;;;;27.35;25.63;;;;;;;22.75;73.19;99956.69;4996378;28;104263;-56
2022/08/15 02:36:53;;;;;;;31.25;29.38;;;;;;;22.75;73.32;99968.59;4996109;28;101968;-56
2022/08/15 02:39:20;;;;;;;33.83;31.75;;;;;;;22.75;73.21;99957.50;4995420;28;102293;-57
2022/08/15 02:41:50;;;;;;;31.50;29.67;;;;;;;22.75;73.25;99945.59;4997895;28;102002;-56
2022/08/15 02:44:19;;;;;;;30.65;28.63;;;;;;;22.75;73.19;99956.69;4996133;28;103943;-57
2022/08/15 02:46:45;;;;;;;29.70;27.98;;;;;;;22.75;73.17;99946.41;4997131;28;102289;-56
2022/08/15 02:49:13;;;;;;;30.98;29.17;;;;;;;22.75;73.26;99957.50;4995909;28;102271;-56
2022/08/15 02:51:40;;;;;;;32.30;30.43;;;;;;;22.75;73.24;99953.94;4997440;28;102308;-56
2022/08/15 02:54:08;;;;;;;30.77;28.95;;;;;;;22.74;73.29;99960.66;4994996;28;110182;-56
2022/08/15 02:56:36;;;;;;;29.60;27.73;;;;;;;22.74;73.23;99961.44;4995338;28;103216;-57
2022/08/15 02:59:07;;;;;;;30.77;28.88;;;;;;;22.74;73.29;99960.66;4976897;28;102362;-56
2022/08/15 03:01:37;;;;;;;30.40;28.50;;;;;;;22.74;73.07;99961.44;4979161;28;101933;-56
2022/08/15 03:04:06;;;;;;;29.92;28.17;;;;;;;22.75;73.12;99951.16;4994609;28;104063;-56
2022/08/15 03:06:36;;;;;;;30.33;28.52;;;;;;;22.74;73.14;99964.22;4985723;28;102236;-56
2022/08/15 03:09:07;;;;;;;32.03;30.17;;;;;;;22.73;73.19;99959.88;4995133;28;102111;-56
2022/08/15 03:11:38;;;;;;;33.95;31.77;;;;;;;22.74;73.12;99961.44;4985051;28;102048;-56
2022/08/15 03:14:07;;;;;;;32.40;30.50;;;;;;;22.74;73.23;99950.34;4987602;28;104086;-57
2022/08/15 03:16:35;;;;;;;31.65;29.67;;;;;;;22.75;73.21;99953.94;4982194;28;102220;-56
2022/08/15 03:19:02;;;;;;;31.83;29.92;;;;;;;22.74;73.25;99955.91;4984138;28;102281;-56
2022/08/15 03:21:29;;;;;;;30.90;29.05;;;;;;;22.74;73.13;99949.56;4994988;28;102245;-56
2022/08/15 03:23:57;;;;;;;30.77;28.92;;;;;;;22.74;73.26;99950.34;4995790;28;103956;-57
2022/08/15 03:26:25;;;;;;;29.60;27.90;;;;;;;22.74;73.22;99944.00;4996214;28;102281;-56
2022/08/15 03:28:52;;;;;;;30.10;28.20;;;;;;;22.74;73.25;99946.78;4995353;28;103767;-56
2022/08/15 03:31:19;;;;;;;30.10;28.30;;;;;;;22.74;73.17;99950.34;4996150;28;102298;-56
2022/08/15 03:33:46;;;;;;;31.02;29.10;;;;;;;22.74;73.24;99966.22;4995301;28;104000;-56
2022/08/15 03:36:14;;;;;;;26.52;24.73;;;;;;;22.74;73.23;99949.56;4995999;28;101921;-56
2022/08/15 03:38:41;;;;;;;26.30;24.63;;;;;;;22.74;73.21;99955.91;4994296;28;102206;-56
2022/08/15 03:41:09;;;;;;;28.15;26.48;;;;;;;22.74;73.16;99949.56;4996702;28;102575;-56
2022/08/15 03:43:37;;;;;;;27.83;26.20;;;;;;;22.74;73.13;99955.91;4994857;28;103936;-57
2022/08/15 03:46:08;;;;;;;28.67;26.95;;;;;;;22.73;73.05;99948.75;4995848;28;103045;-56
2022/08/15 03:48:37;;;;;;;28.67;26.95;;;;;;;22.73;73.29;99946.00;4994551;28;102288;-56
2022/08/15 03:51:05;;;;;;;32.30;30.42;;;;;;;22.73;73.08;99946.00;4995068;28;102307;-56
2022/08/15 03:53:39;;;;;;;30.10;28.17;;;;;;;22.73;73.37;99946.00;4995180;28;103991;-56
2022/08/15 03:56:06;;;;;;;30.48;28.40;;;;;;;22.74;73.40;99944.81;4995903;28;102579;-56
2022/08/15 03:58:34;;;;;;;28.30;26.60;;;;;;;22.73;73.14;99943.22;4994619;28;102643;-56
2022/08/15 04:01:02;;;;;;;30.00;28.08;;;;;;;22.75;73.40;99948.38;4995816;28;103923;-56
2022/08/15 04:03:30;;;;;;;26.07;24.37;;;;;;;22.74;73.33;99949.56;4995251;28;103920;-55
2022/08/15 04:05:59;;;;;;;29.27;27.58;;;;;;;22.74;73.35;99950.34;4995697;28;102443;-57
2022/08/15 04:08:30;;;;;;;28.02;26.27;;;;;;;22.73;73.10;99957.09;4981874;28;101975;-56
2022/08/15 04:10:59;;;;;;;29.08;27.15;;;;;;;22.74;73.43;99961.44;4994799;28;102156;-56
2022/08/15 04:13:26;;;;;;;31.52;29.58;;;;;;;22.73;73.32;99957.09;4995614;28;104157;-57
2022/08/15 04:15:58;;;;;;;30.98;28.90;;;;;;;22.72;73.45;99958.28;4995378;28;102361;-56
2022/08/15 04:18:25;;;;;;;29.38;27.58;;;;;;;22.74;73.35;99961.44;4994184;28;102109;-56
2022/08/15 04:20:51;;;;;;;29.33;27.52;;;;;;;22.74;73.24;99958.69;4985997;28;102249;-56
2022/08/15 04:23:18;;;;;;;28.52;26.75;;;;;;;22.74;73.43;99961.44;4994737;28;104080;-56
2022/08/15 04:25:45;;;;;;;31.60;29.73;;;;;;;22.73;73.16;99959.88;4998226;28;102648;-56
2022/08/15 04:28:15;;;;;;;26.55;24.98;;;;;;;22.74;73.29;99961.44;4989012;28;102418;-56
2022/08/15 04:30:43;;;;;;;27.58;25.83;;;;;;;22.73;73.18;99959.06;4998765;28;102016;-56
2022/08/15 04:33:13;;;;;;;28.67;26.83;;;;;;;22.73;73.23;99962.63;4998411;28;103927;-56
2022/08/15 04:35:42;;;;;;;29.63;27.55;;;;;;;22.74;73.23;99967.00;4978889;28;102003;-56
2022/08/15 04:38:09;;;;;;;29.17;27.35;;;;;;;22.74;73.20;99972.53;4997813;28;102175;-56
2022/08/15 04:40:36;;;;;;;30.15;28.27;;;;;;;22.74;73.41;99975.31;4998788;28;102765;-57
2022/08/15 04:43:04;;;;;;;30.95;28.90;;;;;;;22.75;73.44;99963.03;4997536;28;103819;-57
2022/08/15 04:45:33;;;;;;;29.80;27.95;;;;;;;22.74;73.21;99967.00;4998365;28;102284;-57
2022/08/15 04:48:02;;;;;;;;;;;;;;;22.74;73.08;99950.34;4995022;28;102428;-56
2022/08/15 04:50:31;;;;;;;20.52;19.08;;;;;;;22.74;73.05;99953.13;4998052;28;102240;-58
2022/08/15 04:52:58;;;;;;;27.20;25.00;;;;;;;22.75;73.11;99951.16;4997633;28;104015;-57
2022/08/15 04:55:25;;;;;;;27.10;25.35;;;;;;;22.74;73.23;99953.13;4996711;28;102973;-57
2022/08/15 04:57:52;;;;;;;28.80;26.92;;;;;;;22.75;73.22;99943.63;4998471;28;102496;-57
2022/08/15 05:00:22;;;;;;;27.65;25.77;;;;;;;22.75;73.06;99957.50;4997188;28;102208;-57
2022/08/15 05:03:01;;;;;;;29.27;27.45;;;;;;;22.75;72.95;99945.59;4997860;28;104227;-57
2022/08/15 05:05:30;;;;;;;26.85;24.83;;;;;;;22.75;72.91;99951.94;4990475;28;102258;-57
2022/08/15 05:07:56;;;;;;;;;;;;;;;22.75;73.07;99946.41;4995261;28;103840;-57
2022/08/15 05:10:23;;;;;;;23.27;21.45;;;;;;;22.75;73.21;99946.41;4996404;28;102279;-57
2022/08/15 05:12:49;;;;;;;26.67;24.92;;;;;;;22.75;72.97;99949.19;4979251;28;103949;-57
2022/08/15 05:15:18;;;;;;;29.67;27.85;;;;;;;22.76;73.29;99945.25;4990322;28;102305;-57
2022/08/15 05:17:46;;;;;;;29.88;27.98;;;;;;;22.77;73.14;99948.81;4998006;28;102216;-57
2022/08/15 05:20:13;;;;;;;29.30;27.40;;;;;;;22.76;73.19;99961.91;4996980;28;102321;-57
2022/08/15 05:22:53;;;;;;;31.70;29.38;;;;;;;22.76;73.18;99964.66;4996065;28;104337;-57
2022/08/15 05:25:20;;;;;;;29.02;27.10;;;;;;;22.76;73.16;99969.41;4988239;28;102364;-57
2022/08/15 05:27:47;;;;;;;32.80;30.83;;;;;;;22.77;73.07;99971.00;4997866;28;102122;-57
2022/08/15 05:30:14;;;;;;;34.08;31.65;;;;;;;22.77;73.08;99971.00;4998072;28;102129;-57
2022/08/15 05:32:41;;;;;;;32.95;30.95;;;;;;;22.77;73.07;99957.94;4997118;28;103920;-57
2022/08/15 05:35:08;;;;;;;34.20;32.05;;;;;;;22.77;73.26;99960.72;4996214;28;102691;-57
2022/08/15 05:37:36;;;;;;;37.35;35.08;;;;;;;22.78;73.28;99964.28;4996756;28;102164;-57
2022/08/15 05:40:06;;;;;;;31.13;28.95;;;;;;;22.77;73.07;99957.94;4997670;28;102121;-57
2022/08/15 05:42:41;;;;;;;31.90;29.75;;;;;;;22.78;73.13;99956.75;4995702;28;104075;-57
2022/08/15 05:45:15;;;;;;;33.42;31.35;;;;;;;22.78;72.87;99954.00;4996125;28;102377;-58
2022/08/15 05:47:47;;;;;;;33.03;30.70;;;;;;;22.79;73.14;99963.94;4996720;28;102757;-57
2022/08/15 05:50:23;;;;;;;32.28;30.23;;;;;;;22.79;73.05;99955.59;4996454;28;102159;-56
2022/08/15 05:52:58;;;;;;;30.27;28.25;;;;;;;22.79;72.90;99958.38;4995776;28;103911;-57
2022/08/15 05:55:35;;;;;;;33.30;31.23;;;;;;;22.81;73.08;99959.97;4993298;28;102257;-56
2022/08/15 05:58:26;;;;;;;31.67;29.60;;;;;;;22.81;73.01;99958.00;4995313;28;102142;-57
2022/08/15 06:01:02;;;;;;;26.80;25.13;;;;;;;22.81;73.01;99958.00;4988260;28;102555;-57
2022/08/15 06:03:30;;;;;;;33.83;31.85;;;;;;;22.81;73.17;99971.06;4984327;28;104416;-57
2022/08/15 06:06:03;;;;;;;29.45;27.45;;;;;;;22.82;72.91;99967.91;4992890;28;102655;-57
2022/08/15 06:08:33;;;;;;;31.73;29.70;;;;;;;22.82;72.97;99967.13;4984960;28;102687;-57
2022/08/15 06:11:08;;;;;;;34.78;32.67;;;;;;;22.84;73.10;99967.56;4988800;28;102518;-57
2022/08/15 06:13:39;;;;;;;32.47;30.52;;;;;;;22.83;72.96;99965.94;4995114;28;103849;-57
2022/08/15 06:16:16;;;;;;;31.70;29.70;;;;;;;22.84;73.03;99960.03;4994012;28;102136;-57
2022/08/15 06:18:44;;;;;;;30.15;28.13;;;;;;;22.84;73.00;99965.56;4996237;28;102375;-56
2022/08/15 06:21:23;;;;;;;35.60;33.50;;;;;;;22.86;73.15;99967.97;4991379;28;102178;-56
2022/08/15 06:24:01;;;;;;;31.35;29.42;;;;;;;22.86;72.99;99962.41;4993680;28;104004;-57
2022/08/15 06:26:44;;;;;;;32.75;30.55;;;;;;;22.86;72.83;99960.44;4997614;28;102401;-57
2022/08/15 06:29:27;;;;;;;32.13;30.10;;;;;;;22.87;72.95;99958.50;4996892;28;102207;-56
2022/08/15 06:32:01;;;;;;;29.30;27.35;;;;;;;22.86;72.83;99962.41;4993055;28;102636;-57
2022/08/15 06:34:34;;;;;;;30.73;28.67;;;;;;;22.87;72.97;99964.03;4994998;28;104049;-57
2022/08/15 06:37:07;;;;;;;33.67;31.58;;;;;;;22.86;72.94;99957.66;4996566;28;102219;-57
2022/08/15 06:39:41;;;;;;;31.40;29.42;;;;;;;22.86;72.98;99968.75;4996648;28;102471;-57
2022/08/15 06:42:16;;;;;;;35.67;33.28;;;;;;;22.88;72.92;99968.41;4995108;28;102366;-57
2022/08/15 06:44:42;;;;;;;31.38;29.08;;;;;;;22.87;73.07;99964.03;4979998;28;103930;-57
2022/08/15 06:47:11;;;;;;;33.72;31.65;;;;;;;22.87;73.05;99966.81;4994840;28;102043;-57
2022/08/15 06:49:42;;;;;;;35.17;32.88;;;;;;;22.87;72.75;99969.59;4992402;28;102136;-57
2022/08/15 06:52:12;;;;;;;34.67;32.55;;;;;;;22.88;73.07;99976.72;4997822;28;102243;-57
2022/08/15 06:54:40;;;;;;;35.90;33.53;;;;;;;22.87;73.03;99977.91;4996006;28;103917;-57
2022/08/15 06:57:16;;;;;;;34.75;32.75;;;;;;;22.87;72.90;99975.13;4990938;28;101897;-57
2022/08/15 06:59:52;;;;;;;34.88;32.78;;;;;;;22.86;73.06;99979.06;4995627;28;102059;-57
2022/08/15 07:02:33;;;;;;;32.28;30.08;;;;;;;22.86;72.95;99967.97;4994474;28;102301;-57
2022/08/15 07:05:10;;;;;;;32.35;30.40;;;;;;;22.87;73.05;99977.91;4987183;28;104132;-57
2022/08/15 07:07:45;;;;;;;31.73;29.73;;;;;;;22.86;72.88;99979.88;4992171;28;102284;-57
2022/08/15 07:10:21;;;;;;;30.85;29.00;;;;;;;22.86;72.81;99987.38;4991035;28;102047;-56
2022/08/15 07:12:59;;;;;;;30.45;28.58;;;;;;;22.88;72.93;99982.28;4983891;28;102485;-57
2022/08/15 07:15:37;;;;;;;32.83;30.73;;;;;;;22.87;72.80;99997.34;4992077;28;103974;-57
2022/08/15 07:18:08;;;;;;;31.43;29.57;;;;;;;22.88;73.00;99985.84;4992174;28;102710;-57
2022/08/15 07:20:35;;;;;;;31.50;29.52;;;;;;;22.88;72.97;99993.38;4985837;28;104738;-57
2022/08/15 07:23:19;;;;;;;32.90;30.90;;;;;;;22.88;72.92;99998.94;4992120;28;102946;-57
2022/08/15 07:25:48;;;;;;;31.42;29.42;;;;;;;22.88;72.83;99994.19;4992828;28;104112;-57
2022/08/15 07:28:18;;;;;;;35.08;32.88;;;;;;;22.88;72.87;99994.19;4992665;28;104127;-57
2022/08/15 07:30:50;;;;;;;35.53;33.38;;;;;;;22.89;73.04;99989.44;4994110;28;102325;-57
2022/08/15 07:33:39;;;;;;;33.97;32.05;;;;;;;22.89;72.92;99990.22;4993822;28;102282;-57
2022/08/15 07:36:14;;;;;;;29.65;27.88;;;;;;;22.91;72.78;99993.44;4985683;28;103928;-57
2022/08/15 07:38:41;;;;;;;30.40;28.60;;;;;;;22.92;72.63;99994.25;4991023;28;102261;-57
2022/08/15 07:41:27;;;;;;;29.98;28.23;;;;;;;22.92;72.75;99997.03;4992857;28;102598;-57
2022/08/15 07:43:59;;;;;;;33.72;31.65;;;;;;;22.93;72.94;99995.84;4995741;28;102624;-57
2022/08/15 07:46:37;;;;;;;32.08;30.20;;;;;;;22.94;72.86;99989.16;4993850;28;104085;-57
2022/08/15 07:49:15;;;;;;;33.63;31.55;;;;;;;22.95;72.45;99982.41;4993575;28;102054;-56
2022/08/15 07:51:46;;;;;;;33.17;31.30;;;;;;;22.95;72.25;99977.66;4979769;28;102238;-57
2022/08/15 07:54:25;;;;;;;32.30;30.27;;;;;;;22.96;71.99;99978.47;4996342;28;102141;-58
2022/08/15 07:56:58;;;;;;;31.60;29.73;;;;;;;22.97;71.94;99991.16;4981682;28;104671;-57
2022/08/15 07:59:28;;;;;;;33.88;31.83;;;;;;;22.98;71.94;99987.22;4986010;28;104725;-57
2022/08/15 08:02:03;;;;;;;33.65;31.63;;;;;;;22.99;71.88;99997.16;4994779;28;102057;-57
2022/08/15 08:04:32;;;;;;;36.10;33.95;;;;;;;23.00;71.90;99998.75;4989901;28;102222;-57
2022/08/15 08:07:04;;;;;;;32.95;31.00;;;;;;;23.00;71.46;100010.63;4988498;28;103924;-56
2022/08/15 08:09:39;;;;;;;33.15;31.17;;;;;;;23.02;71.44;100004.72;4998314;28;102227;-57
2022/08/15 08:12:21;;;;;;;31.55;29.45;;;;;;;23.02;71.45;100004.72;4979376;28;102535;-57
2022/08/15 08:15:02;;;;;;;32.80;30.83;;;;;;;23.03;71.48;99992.44;4991430;28;102373;-56
2022/08/15 08:17:36;;;;;;;34.22;32.20;;;;;;;23.05;71.40;99997.66;4982434;28;104227;-57
2022/08/15 08:20:15;;;;;;;32.58;30.65;;;;;;;23.05;71.34;99998.44;4984578;28;104575;-56
2022/08/15 08:22:50;;;;;;;31.67;29.73;;;;;;;23.06;71.26;100000.03;4990069;28;102861;-57
2022/08/15 08:25:25;;;;;;;33.22;31.33;;;;;;;23.06;71.25;100005.59;4991616;28;102119;-56
2022/08/15 08:28:02;;;;;;;32.97;30.90;;;;;;;23.05;71.17;100001.22;4990714;28;103889;-56
2022/08/15 08:30:37;;;;;;;36.15;34.03;;;;;;;23.07;71.21;100001.63;4999382;28;102485;-57
2022/08/15 08:33:16;;;;;;;33.65;31.70;;;;;;;23.07;71.09;99998.06;4997583;28;102554;-56
2022/08/15 08:35:52;;;;;;;32.72;30.77;;;;;;;23.07;71.11;99993.31;4992858;28;102343;-56
2022/08/15 08:38:34;;;;;;;36.20;34.03;;;;;;;23.08;71.27;99988.53;4989989;28;103758;-57
2022/08/15 08:41:25;;;;;;;30.95;28.77;;;;;;;23.07;71.38;99984.19;4990782;28;102649;-56
2022/08/15 08:44:04;;;;;;;32.75;30.80;;;;;;;23.07;71.41;99986.94;4991690;28;102708;-57
2022/08/15 08:46:48;;;;;;;32.92;30.88;;;;;;;23.06;71.64;99986.16;4992533;28;102262;-57
2022/08/15 08:49:23;;;;;;;33.30;31.30;;;;;;;23.06;71.54;99994.47;4997171;28;104153;-56
2022/08/15 08:52:02;;;;;;;32.95;31.05;;;;;;;23.05;71.80;99976.25;4998311;28;102201;-57
2022/08/15 08:54:38;;;;;;;33.15;31.08;;;;;;;23.07;71.62;99978.63;4997412;28;102183;-57
2022/08/15 08:57:09;;;;;;;32.13;30.15;;;;;;;23.08;71.38;99975.50;4980090;28;101995;-57
2022/08/15 08:59:51;;;;;;;34.25;32.08;;;;;;;23.08;71.19;99974.66;4983375;28;104400;-57
2022/08/15 09:02:28;;;;;;;37.17;34.83;;;;;;;23.08;71.32;99972.72;4998490;28;102274;-57
2022/08/15 09:05:01;;;;;;;30.60;28.67;;;;;;;23.08;71.02;99974.66;4998346;28;102041;-57
2022/08/15 09:07:32;;;;;;;33.88;31.90;;;;;;;23.10;71.20;99969.56;4999407;28;102175;-56
2022/08/15 09:10:06;;;;;;;34.50;32.45;;;;;;;23.09;71.41;99966.00;4987302;28;108170;-56
2022/08/15 09:15:27;;;;;;;30.42;28.58;;;;;;;23.09;70.98;99954.88;4995797;28;102141;-56
2022/08/15 09:18:01;;;;;;;34.08;32.10;;;;;;;23.11;71.14;99969.19;4999418;28;102193;-57
2022/08/15 09:20:33;;;;;;;35.13;33.08;;;;;;;23.12;71.21;99967.22;4991321;28;105485;-57
2022/08/15 09:23:00;;;;;;;34.70;32.65;;;;;;;23.11;70.99;99971.94;4996609;28;102310;-57
2022/08/15 09:25:29;;;;;;;32.95;31.05;;;;;;;23.12;71.16;99973.56;4998365;28;102238;-57
2022/08/15 09:28:04;;;;;;;35.42;33.33;;;;;;;23.12;71.41;99970.00;4985227;28;102356;-57
2022/08/15 09:30:32;;;;;;;31.80;29.92;;;;;;;23.11;71.13;99971.94;4982851;28;104121;-57
2022/08/15 09:33:14;;;;;;;34.75;32.70;;;;;;;23.11;71.16;99974.72;4998105;28;102073;-57
2022/08/15 09:36:10;;;;;;;30.73;28.77;;;;;;;23.11;71.16;99974.72;4990686;28;102182;-50
2022/08/15 09:38:48;;;;;;;31.98;30.00;;;;;;;23.13;71.32;99977.16;4997459;28;102289;-57
2022/08/15 09:41:58;;;;;;;31.80;29.90;;;;;;;23.13;71.19;99966.03;4997031;28;104484;-57
2022/08/15 09:44:53;;;;;;;31.00;28.98;;;;;;;23.13;70.85;99979.91;4997313;28;102539;-56
2022/08/15 09:47:32;;;;;;;28.48;26.80;;;;;;;23.13;71.13;99983.50;4995983;28;102167;-57
2022/08/15 09:50:14;;;;;;;;;;;;;;;23.12;71.17;99987.44;4991554;28;102119;-57
2022/08/15 09:52:57;;;;;;;21.38;19.98;;;;;;;23.12;71.24;99981.09;4992728;28;108340;-56
2022/08/15 09:55:32;;;;;;;26.13;24.33;;;;;;;23.12;71.14;99981.91;4988556;28;102586;-57
2022/08/15 09:58:11;;;;;;;30.40;28.45;;;;;;;23.11;71.14;99991.38;4995183;28;102250;-57
2022/08/15 10:00:41;;;;;;;29.65;27.90;;;;;;;23.11;71.48;99996.94;4997818;28;102027;-57
2022/08/15 10:03:23;;;;;;;31.02;29.15;;;;;;;23.10;71.06;99995.34;4996705;28;103879;-57
2022/08/15 10:06:03;;;;;;;30.35;28.48;;;;;;;23.11;71.42;100001.69;4991190;28;103569;-57
2022/08/15 10:09:09;;;;;;;30.27;28.35;;;;;;;23.13;71.19;100004.91;4995958;28;102309;-57
2022/08/15 10:11:55;;;;;;;28.60;26.73;;;;;;;23.14;71.47;100007.28;4995106;28;102526;-57
2022/08/15 10:14:25;;;;;;;28.33;26.63;;;;;;;23.13;71.07;100005.69;4996015;28;108316;-55
2022/08/15 10:16:55;;;;;;;30.10;28.27;;;;;;;23.13;71.15;100002.91;4997031;28;102184;-56
2022/08/15 10:19:29;;;;;;;30.58;28.70;;;;;;;23.13;71.14;100004.91;4996093;28;102619;-56
2022/08/15 10:22:00;;;;;;;29.65;27.83;;;;;;;23.11;71.56;100013.56;4990584;28;102614;-57
2022/08/15 10:24:32;;;;;;;31.33;29.40;;;;;;;23.13;70.85;100022.34;4981227;28;104016;-57
2022/08/15 10:27:17;;;;;;;29.13;27.27;;;;;;;23.19;70.82;100014.50;4977404;28;102285;-57
2022/08/15 10:29:49;;;;;;;33.42;31.02;;;;;;;23.21;70.92;100018.50;4989061;28;102119;-57
2022/08/15 10:32:35;;;;;;;34.53;32.10;;;;;;;23.23;70.77;100023.69;4997061;28;102409;-57
2022/08/15 10:35:06;;;;;;;34.03;31.77;;;;;;;23.23;70.87;100026.47;4995142;28;104207;-57
2022/08/15 10:37:48;;;;;;;36.38;33.90;;;;;;;23.23;71.18;100027.25;4995824;28;102236;-57
2022/08/15 10:40:34;;;;;;;32.50;30.25;;;;;;;23.24;71.13;100028.84;4995461;28;102817;-58
2022/08/15 10:43:14;;;;;;;32.72;30.52;;;;;;;23.24;71.24;100034.41;4992402;28;102162;-56
2022/08/15 10:45:46;;;;;;;30.23;28.15;;;;;;;23.25;71.25;100041.56;4992837;28;104218;-57
2022/08/15 10:48:38;;;;;;;38.60;35.80;;;;;;;23.24;71.23;100034.41;4996437;28;102043;-56
2022/08/15 10:51:15;;;;;;;33.20;30.90;;;;;;;23.24;70.99;100031.63;4996711;28;102267;-56
2022/08/15 10:53:48;;;;;;;34.80;32.50;;;;;;;23.24;71.23;100034.41;4996956;28;102348;-56
2022/08/15 10:56:19;;;;;;;35.15;32.75;;;;;;;23.23;71.36;100026.47;4996541;28;103945;-56
2022/08/15 10:58:49;;;;;;;34.78;32.45;;;;;;;23.24;71.25;100023.31;4982075;28;104541;-57
2022/08/15 11:01:21;;;;;;;35.55;32.97;;;;;;;23.23;71.31;100032.81;4991249;28;102377;-57
2022/08/15 11:03:52;;;;;;;36.70;34.10;;;;;;;23.26;71.24;100032.06;4991356;28;102427;-57
2022/08/15 11:06:21;;;;;;;33.13;30.80;;;;;;;23.25;71.32;100027.69;4995477;28;103999;-56
2022/08/15 11:08:52;;;;;;;37.85;35.25;;;;;;;23.26;71.42;100026.53;4995313;28;101951;-57
2022/08/15 11:11:21;;;;;;;35.92;33.35;;;;;;;23.27;71.28;100028.13;4987631;28;102393;-57
2022/08/15 11:13:54;;;;;;;35.08;32.60;;;;;;;23.27;71.53;100022.56;4984289;28;102012;-57
2022/08/15 11:16:29;;;;;;;35.13;32.67;;;;;;;23.25;71.57;100013.78;4979588;28;103891;-57
2022/08/15 11:18:58;;;;;;;37.28;34.70;;;;;;;23.26;71.55;100020.97;4986750;28;102369;-57
2022/08/15 11:21:30;;;;;;;30.38;28.20;;;;;;;23.26;71.64;100020.13;4989461;28;102094;-57
2022/08/15 11:24:06;;;;;;;36.72;33.75;;;;;;;23.27;71.32;100022.56;4980755;28;102606;-57
2022/08/15 11:26:35;;;;;;;34.15;31.67;;;;;;;23.29;71.56;100018.59;4975418;28;103922;-57
2022/08/15 11:29:14;;;;;;;36.67;34.05;;;;;;;23.28;71.56;100017.81;4984066;28;102236;-57
2022/08/15 11:31:47;;;;;;;34.28;31.77;;;;;;;23.27;71.62;100011.47;4981613;28;102082;-57
2022/08/15 11:34:20;;;;;;;33.92;31.38;;;;;;;23.27;71.50;100011.47;4986236;28;102423;-56
2022/08/15 11:36:48;;;;;;;36.03;33.13;;;;;;;23.28;71.72;100017.81;4979501;28;104345;-56